Latest Weather Observations for Cape Borda

IDS60801

Issued at 4:31 pm CDT Wednesday 22 February 2017 (issued every 30 minutes, with the page automatically refreshed every 10 minutes)

About weather observations | Map of weather stations | Latest weather observations for SA | Other Formats
Station Details ID: 022823 Name: CAPE BORDA Lat: -35.75 Lon: 136.60 Height: 158.0 m
Data from the previous 72 hours. | See also: Recent months at Cape Borda
Date/Time
CDT
Temp
°C
App
Temp
°C
Dew
Point
°C
Rel
Hum
%
Delta-T
°C
Wind Press
QNH
hPa
Press
MSL
hPa
Rain since
9am
mm
Dir  Spd
km/h
Gust
km/h
Spd
kts
Gust
kts
22/04:30pm 20.3 14.1 12.8 62 4.3 WNW 37 56 20 30 1010.3 - 0.0
22/04:03pm 18.8 11.6 13.0 69 3.3 NW 43 61 23 33 1010.2 - 0.0
22/04:00pm 18.7 11.4 12.7 68 3.4 NW 43 57 23 31 1010.2 - 0.0
22/03:30pm 19.6 13.7 13.5 68 3.5 NW 37 56 20 30 1010.1 - 0.0
22/03:00pm 20.2 12.9 12.8 62 4.2 NW 43 61 23 33 1010.1 1009.7 0.0
22/02:32pm 18.8 11.8 13.8 72 2.9 NW 43 61 23 33 1009.9 - 0.0
22/02:30pm 19.5 12.5 13.8 69 3.3 NW 43 59 23 32 1009.9 - 0.0
22/02:07pm 18.1 11.2 13.9 76 2.4 NW 43 61 23 33 1009.7 - 0.0
22/02:00pm 18.3 11.2 13.4 73 2.8 NW 43 57 23 31 1009.7 - 0.0
22/01:58pm 18.9 11.8 13.5 71 3.1 NW 43 61 23 33 1009.7 - 0.0
22/01:30pm 18.8 11.4 12.6 67 3.5 NW 43 57 23 31 1009.6 - 0.0
22/01:04pm 20.2 13.0 12.0 59 4.6 NW 41 59 22 32 1009.3 - 0.0
22/01:00pm 20.0 12.8 13.0 64 4.0 NW 43 57 23 31 1009.2 - 0.0
22/12:33pm 19.6 13.2 13.1 66 3.7 NW 39 57 21 31 1009.0 - 0.0
22/12:30pm 19.7 13.5 13.8 69 3.4 NW 39 50 21 27 1009.0 - 0.0
22/12:00pm 19.0 12.5 13.0 68 3.4 NW 39 57 21 31 1009.1 1008.7 0.0
22/11:44am 18.9 12.6 12.3 65 3.7 NW 37 57 20 31 1009.3 - 0.0
22/11:30am 18.7 11.8 11.5 63 4.0 NW 39 54 21 29 1009.2 - 0.0
22/11:00am 18.8 12.5 10.9 60 4.3 NW 35 54 19 29 1008.9 - 0.0
22/10:37am 18.2 12.7 11.7 66 3.6 WNW 32 50 17 27 1008.8 - 0.0
22/10:30am 18.1 12.5 11.6 66 3.6 NW 32 46 17 25 1008.7 - 0.0
22/10:09am 18.3 12.8 9.2 55 4.8 NW 28 48 15 26 1008.1 - 0.0
22/10:00am 18.1 14.9 12.0 67 3.4 NNW 20 30 11 16 1007.7 - 0.0
22/09:30am 18.2 13.4 11.5 65 3.7 WNW 28 43 15 23 1008.8 - 0.0
22/09:00am 18.3 13.4 13.6 74 2.7 W 32 44 17 24 1008.8 1008.4 0.0
22/08:30am 18.3 12.6 14.3 77 2.3 W 37 52 20 28 1008.1 - 0.0
22/08:00am 19.0 14.4 14.7 76 2.5 WSW 32 50 17 27 1006.9 - 0.0
22/07:30am 20.7 15.8 14.4 67 3.7 NNW 33 52 18 28 1005.9 - 0.0
22/07:18am 20.9 16.1 14.6 67 3.7 NNW 33 56 18 30 1005.6 - 0.0
22/07:00am 20.8 16.4 15.1 70 3.4 N 32 44 17 24 1004.8 - 0.0
22/06:30am 21.0 17.2 14.6 67 3.8 NNE 28 41 15 22 1004.1 - 0.0
22/06:00am 21.8 16.2 12.1 54 5.5 NE 33 46 18 25 1003.7 1003.3 0.0
22/05:04am 22.5 16.0 10.2 45 6.8 NNE 35 56 19 30 1003.9 - 0.0
22/05:00am 22.0 16.2 10.9 49 6.2 NE 32 46 17 25 1004.0 - 0.0
22/04:30am 21.7 15.8 11.2 51 5.9 NE 33 44 18 24 1004.3 - 0.0
22/04:00am 21.3 15.9 12.1 55 5.2 NE 32 41 17 22 1004.8 - 0.0
22/03:30am 21.5 16.4 11.8 54 5.5 NE 30 43 16 23 1005.0 - 0.0
22/03:00am 21.6 16.1 11.9 54 5.5 NE 32 43 17 23 1005.4 1005.1 0.0
22/02:30am 21.8 16.4 12.1 54 5.5 NE 32 48 17 26 1006.1 - 0.0
22/02:28am 22.2 16.7 10.7 48 6.4 NE 30 48 16 26 1006.1 - 0.0
22/02:00am 21.3 16.6 14.2 64 4.2 NE 32 43 17 23 1007.0 - 0.0
22/01:30am 21.8 16.5 13.2 58 5.0 NE 33 46 18 25 1007.3 - 0.0
22/01:00am 21.8 16.2 13.2 58 5.0 NE 35 50 19 27 1008.0 - 0.0
22/12:30am 22.5 16.2 11.1 48 6.4 NE 35 48 19 26 1008.5 - 0.0
22/12:00am 22.5 15.8 9.7 44 7.0 ENE 35 54 19 29 1008.7 1008.3 0.0
 
Date/Time
CDT
Temp
°C
App
Temp
°C
Dew
Point
°C
Rel
Hum
%
Delta-T
°C
Wind Press
QNH
hPa
Press
MSL
hPa
Rain since
9am
mm
Dir  Spd
km/h
Gust
km/h
Spd
kts
Gust
kts
21/11:59pm 22.4 15.9 10.2 46 6.7 ENE 35 54 19 29 1008.7 - 0.0
21/11:30pm 22.8 16.2 8.6 40 7.6 ENE 33 46 18 25 1009.0 - 0.0
21/11:00pm 22.9 16.1 7.0 36 8.3 ENE 32 43 17 23 1009.7 - 0.0
21/10:30pm 22.6 15.8 6.8 36 8.2 ENE 32 48 17 26 1010.0 - 0.0
21/10:00pm 22.1 16.3 9.6 45 6.8 ENE 30 43 16 23 1010.2 - 0.0
21/09:30pm 22.2 16.8 9.5 44 6.9 ENE 28 39 15 21 1010.2 - 0.0
21/09:00pm 22.5 16.8 8.2 40 7.6 ENE 28 43 15 23 1010.6 1010.2 0.0
21/08:30pm 22.4 17.4 8.0 39 7.6 ENE 24 32 13 17 1010.7 - 0.0
21/08:00pm 22.5 17.5 8.2 40 7.6 ENE 24 33 13 18 1010.5 - 0.0
21/07:30pm 22.6 17.5 9.3 42 7.2 ENE 26 33 14 18 1010.5 - 0.0
21/07:00pm 22.7 17.3 9.5 43 7.2 ENE 28 39 15 21 1010.6 - 0.0
21/06:30pm 22.8 17.6 10.1 44 7.0 ENE 28 39 15 21 1011.0 - 0.0
21/06:00pm 22.9 17.8 10.7 46 6.8 ENE 28 39 15 21 1011.4 1011.1 0.0
21/05:30pm 22.3 18.6 13.8 58 5.0 ENE 26 33 14 18 1011.8 - 0.0
21/05:00pm 23.3 19.7 11.7 48 6.6 ENE 22 32 12 17 1012.3 - 0.0
21/04:30pm 22.3 18.6 12.7 54 5.5 NE 24 32 13 17 1012.9 - 0.0
21/04:00pm 22.8 19.4 13.8 57 5.3 NE 24 33 13 18 1013.4 - 0.0
21/03:30pm 22.7 19.1 13.2 55 5.5 ENE 24 30 13 16 1013.8 - 0.0
21/03:00pm 22.1 18.3 12.5 54 5.5 NE 24 32 13 17 1014.3 1013.9 0.0
21/02:30pm 22.5 19.0 13.4 56 5.3 NE 24 32 13 17 1014.8 - 0.0
21/02:00pm 21.1 16.7 12.9 59 4.7 NE 28 35 15 19 1015.1 - 0.0
21/01:30pm 21.2 17.0 12.4 57 5.0 NE 26 35 14 19 1015.4 - 0.0
21/01:00pm 21.7 16.8 12.4 55 5.3 NE 30 39 16 21 1015.8 - 0.0
21/12:30pm 21.3 16.7 12.3 56 5.1 NE 28 37 15 20 1016.3 - 0.0
21/12:00pm 20.3 15.7 12.3 60 4.5 NE 28 39 15 21 1016.8 1016.5 0.0
21/11:30am 19.8 14.8 12.3 62 4.2 NE 30 37 16 20 1017.1 - 0.0
21/11:00am 19.6 15.3 11.9 61 4.3 NE 26 37 14 20 1017.3 - 0.0
21/10:30am 19.3 14.3 10.9 58 4.6 NE 28 35 15 19 1017.4 - 0.0
21/10:00am 18.8 14.9 12.2 65 3.7 NE 24 33 13 18 1017.9 - 0.0
21/09:30am 18.2 14.3 12.1 67 3.4 NE 24 35 13 19 1018.0 - 0.0
21/09:00am 17.2 13.8 12.5 74 2.6 NE 22 32 12 17 1018.1 1017.8 0.0
21/08:30am 16.3 12.8 12.1 76 2.3 NE 22 30 12 16 1017.8 - 0.0
21/08:00am 15.4 11.7 11.5 77 2.1 ENE 22 30 12 16 1017.5 - 0.0
21/07:30am 14.4 10.9 11.0 80 1.8 ENE 20 28 11 15 1017.2 - 0.0
21/07:00am 14.1 10.1 10.5 79 1.9 ENE 22 30 12 16 1017.1 - 0.0
21/06:30am 13.7 9.7 10.3 80 1.8 ENE 22 28 12 15 1017.2 - 0.0
21/06:00am 13.5 9.3 9.6 77 2.0 ENE 22 30 12 16 1016.8 1016.5 0.0
21/05:30am 13.5 9.1 9.0 74 2.3 ENE 22 28 12 15 1017.1 - 0.0
21/05:00am 12.5 8.1 7.6 72 2.4 E 20 26 11 14 1016.8 - 0.0
21/04:30am 12.5 8.4 8.5 76 2.0 ENE 20 28 11 15 1017.2 - 0.0
21/04:00am 11.9 7.8 8.0 77 1.9 E 19 28 10 15 1017.3 - 0.0
21/03:30am 11.6 7.4 7.5 76 2.0 E 19 20 10 11 1017.5 - 0.0
21/03:00am 11.7 7.5 7.6 76 2.0 E 19 26 10 14 1017.7 1017.4 0.0
21/02:30am 11.7 7.5 7.4 75 2.1 E 19 24 10 13 1017.8 - 0.0
21/02:00am 11.6 7.4 7.3 75 2.1 E 19 26 10 14 1017.9 - 0.0
21/01:30am 11.3 7.2 7.8 79 1.7 E 19 24 10 13 1018.2 - 0.0
21/01:00am 11.1 7.4 7.8 80 1.6 ESE 17 22 9 12 1018.2 - 0.0
21/12:30am 11.4 7.6 7.7 78 1.8 ESE 17 20 9 11 1018.6 - 0.0
21/12:00am 11.8 7.7 7.7 76 2.0 ESE 19 24 10 13 1018.9 1018.6 0.0
 
Date/Time
CDT
Temp
°C
App
Temp
°C
Dew
Point
°C
Rel
Hum
%
Delta-T
°C
Wind Press
QNH
hPa
Press
MSL
hPa
Rain since
9am
mm
Dir  Spd
km/h
Gust
km/h
Spd
kts
Gust
kts
20/11:30pm 12.1 8.4 7.8 75 2.1 ESE 17 20 9 11 1019.4 - 0.0
20/11:00pm 12.6 8.9 7.9 73 2.3 ESE 17 24 9 13 1019.6 - 0.0
20/10:30pm 13.2 9.1 8.0 71 2.6 ESE 19 22 10 12 1019.6 - 0.0
20/10:00pm 13.2 9.5 8.0 71 2.6 SE 17 20 9 11 1019.6 - 0.0
20/09:30pm 13.1 9.0 7.8 70 2.6 SE 19 24 10 13 1019.5 - 0.0
20/09:00pm 13.5 9.2 7.9 69 2.8 SE 20 26 11 14 1019.1 1018.8 0.0
20/08:30pm 14.1 10.1 8.3 68 2.9 SE 19 22 10 12 1018.9 - 0.0
20/08:00pm 15.3 11.7 8.4 63 3.5 SSE 17 24 9 13 1018.7 - 0.0
20/07:30pm 16.4 11.7 7.7 56 4.4 S 22 30 12 16 1018.2 - 0.0
20/07:00pm 17.3 13.0 7.9 54 4.8 S 20 32 11 17 1017.9 - 0.0
20/06:30pm 18.1 13.8 8.0 51 5.2 S 20 32 11 17 1017.8 - 0.0
20/06:00pm 18.5 13.5 8.0 50 5.4 SSW 24 32 13 17 1017.6 1017.3 0.0
20/05:30pm 18.3 12.9 7.8 50 5.4 SW 26 35 14 19 1017.6 - 0.0
20/05:00pm 18.7 13.3 7.8 49 5.6 SW 26 33 14 18 1017.4 - 0.0
20/04:30pm 18.9 13.7 7.3 47 5.9 SW 24 32 13 17 1017.5 - 0.0
20/04:00pm 18.7 13.3 8.0 49 5.5 SW 26 33 14 18 1017.4 - 0.0
20/03:30pm 18.4 13.3 7.6 49 5.5 SW 24 32 13 17 1017.6 - 0.0
20/03:00pm 18.8 13.8 8.2 50 5.5 SW 24 32 13 17 1018.0 1017.7 0.0
20/02:30pm 17.9 13.7 8.4 53 4.9 SW 20 28 11 15 1018.2 - 0.0
20/02:00pm 18.1 14.0 8.7 54 4.9 WSW 20 28 11 15 1018.4 - 0.0
20/01:30pm 17.5 13.7 9.1 58 4.4 WSW 19 28 10 15 1018.4 - 0.0
20/01:00pm 17.5 14.1 9.1 58 4.4 WSW 17 24 9 13 1018.7 - 0.0
20/12:30pm 17.3 13.9 9.1 58 4.3 WSW 17 20 9 11 1018.9 - 0.0
20/12:00pm 16.6 13.8 8.6 59 4.1 W 13 17 7 9 1019.1 1018.8 0.0
20/11:30am 16.6 14.9 8.4 58 4.2 S 7 11 4 6 1019.2 - 0.0
20/11:00am 16.1 14.2 9.2 63 3.6 WSW 9 15 5 8 1019.3 - 0.0
20/10:30am 15.7 13.6 9.8 68 3.1 NNW 11 15 6 8 1019.4 - 0.0
20/10:00am 16.3 15.1 9.4 63 3.6 E 6 13 3 7 1019.3 - 0.0
20/09:30am 16.3 13.5 8.5 60 4.0 SE 13 20 7 11 1019.2 - 0.0
20/09:00am 15.4 13.1 11.7 78 2.0 SE 15 19 8 10 1019.0 1018.7 0.6
20/08:30am 13.7 12.0 11.3 85 1.3 SE 11 15 6 8 1018.8 - 0.6
20/08:00am 13.2 12.0 11.5 89 0.9 SSE 9 11 5 6 1018.5 - 0.6
20/07:30am 12.3 11.0 11.2 93 0.6 S 9 11 5 6 1018.2 - 0.6
20/07:00am 12.2 10.9 11.4 95 0.4 SSW 9 11 5 6 1018.0 - 0.6
20/06:30am 12.3 11.0 11.2 93 0.6 SSW 9 11 5 6 1017.7 - 0.6
20/06:00am 11.9 10.9 10.9 94 0.5 SSE 7 9 4 5 1017.3 1017.0 0.6
20/05:30am 11.9 9.0 10.9 94 0.5 SSE 17 24 9 13 1017.3 - 0.4
20/05:00am 11.6 10.1 10.6 94 0.5 S 9 11 5 6 1017.1 - 0.4
20/04:30am 11.8 9.5 10.6 92 0.6 S 13 17 7 9 1017.2 - 0.4
20/04:00am 12.3 10.3 11.4 94 0.5 S 13 17 7 9 1017.1 - 0.4
20/03:30am 12.4 10.1 11.7 95 0.4 S 15 19 8 10 1017.3 - 0.4
20/03:00am 12.7 10.6 11.2 91 0.8 S 13 17 7 9 1017.3 1017.0 0.0
20/02:30am 13.0 10.7 10.5 85 1.3 S 13 19 7 10 1017.4 - 0.0
20/02:00am 13.0 11.1 10.5 85 1.3 SSE 11 17 6 9 1017.4 - 0.0
20/01:30am 13.1 10.4 10.2 82 1.5 SSE 15 20 8 11 1017.7 - 0.0
20/01:00am 13.2 10.0 10.1 81 1.6 S 17 20 9 11 1017.8 - 0.0
20/12:30am 12.6 10.2 10.1 85 1.3 S 13 17 7 9 1018.0 - 0.0
20/12:00am 12.5 10.2 10.4 87 1.1 S 13 17 7 9 1018.2 1017.9 0.0
 
Date/Time
CDT
Temp
°C
App
Temp
°C
Dew
Point
°C
Rel
Hum
%
Delta-T
°C
Wind Press
QNH
hPa
Press
MSL
hPa
Rain since
9am
mm
Dir  Spd
km/h
Gust
km/h
Spd
kts
Gust
kts
19/11:30pm 12.5 10.2 10.6 88 1.0 S 13 15 7 8 1018.2 - 0.0
19/11:00pm 12.8 9.2 9.7 81 1.6 S 19 24 10 13 1018.2 - 0.0
19/10:30pm 12.3 9.6 10.2 87 1.1 S 15 20 8 11 1018.2 - 0.0
19/10:00pm 12.8 9.3 10.3 85 1.3 S 19 26 10 14 1018.1 - 0.0
19/09:30pm 12.8 9.3 10.1 84 1.4 S 19 24 10 13 1017.8 - 0.0
19/09:00pm 13.0 10.4 10.7 86 1.2 S 15 20 8 11 1017.7 1017.4 0.0
19/08:30pm 13.5 9.8 11.4 87 1.1 S 22 33 12 18 1017.7 - 0.0
19/08:00pm 14.5 10.2 9.5 72 2.6 SSW 22 30 12 16 1017.5 - 0.0
19/07:30pm 14.8 10.0 8.9 68 3.0 SSW 24 32 13 17 1017.5 - 0.0
19/07:00pm 15.3 10.5 8.9 65 3.3 SSW 24 32 13 17 1017.2 - 0.0
19/06:30pm 15.2 10.3 9.9 70 2.8 SSW 26 37 14 20 1017.0 - 0.0
19/06:00pm 16.2 10.9 9.9 66 3.3 SSW 28 35 15 19 1016.9 1016.6 0.0
19/05:30pm 14.3 10.1 12.3 88 1.1 SSW 26 35 14 19 1017.0 - 0.0
19/05:00pm 15.7 11.2 10.0 69 3.0 SSW 24 33 13 18 1016.9 - 0.0

Other Formats:

Comma delimited format used in spreadsheet applications
http://www.bom.gov.au/fwo/IDS60801/IDS60801.95805.axf

JavaScript Object Notation format (JSON) in row-major order
http://www.bom.gov.au/fwo/IDS60801/IDS60801.95805.json